sensor_id;sensor_type;location;lat;lon;timestamp;temperature;humidity
15815;DHT22;8008;50.024;8.172;2023-01-24T04:01:05;2.30;99.90
15815;DHT22;8008;50.024;8.172;2023-01-24T04:03:56;2.30;99.90
15815;DHT22;8008;50.024;8.172;2023-01-24T04:06:24;2.30;99.90
15815;DHT22;8008;50.024;8.172;2023-01-24T04:08:52;2.30;99.90
15815;DHT22;8008;50.024;8.172;2023-01-24T04:11:24;2.40;99.90
15815;DHT22;8008;50.024;8.172;2023-01-24T04:14:12;2.50;99.90
15815;DHT22;8008;50.024;8.172;2023-01-24T04:16:59;2.50;99.90
15815;DHT22;8008;50.024;8.172;2023-01-24T04:19:34;2.60;99.90
15815;DHT22;8008;50.024;8.172;2023-01-24T04:22:02;2.70;99.90
15815;DHT22;8008;50.024;8.172;2023-01-24T04:24:33;2.70;99.90
15815;DHT22;8008;50.024;8.172;2023-01-24T04:27:01;2.70;99.90
15815;DHT22;8008;50.024;8.172;2023-01-24T04:29:39;2.70;99.90
15815;DHT22;8008;50.024;8.172;2023-01-24T04:32:09;2.80;99.90
15815;DHT22;8008;50.024;8.172;2023-01-24T04:34:48;2.80;99.90
15815;DHT22;8008;50.024;8.172;2023-01-24T04:37:25;2.90;99.90
15815;DHT22;8008;50.024;8.172;2023-01-24T04:39:54;2.90;99.90
15815;DHT22;8008;50.024;8.172;2023-01-24T04:42:23;3.00;99.90
15815;DHT22;8008;50.024;8.172;2023-01-24T04:44:51;3.00;99.90
15815;DHT22;8008;50.024;8.172;2023-01-24T04:47:20;3.10;99.90
15815;DHT22;8008;50.024;8.172;2023-01-24T04:49:49;3.10;99.90
15815;DHT22;8008;50.024;8.172;2023-01-24T04:52:19;3.20;99.90
15815;DHT22;8008;50.024;8.172;2023-01-24T04:55:04;3.20;99.90
15815;DHT22;8008;50.024;8.172;2023-01-24T04:57:33;3.20;99.90
15815;DHT22;8008;50.024;8.172;2023-01-24T05:00:01;3.30;99.90
15815;DHT22;8008;50.024;8.172;2023-01-24T05:02:30;3.30;99.90
15815;DHT22;8008;50.024;8.172;2023-01-24T05:05:00;3.30;99.90
15815;DHT22;8008;50.024;8.172;2023-01-24T05:07:28;3.40;99.90
15815;DHT22;8008;50.024;8.172;2023-01-24T05:10:03;3.40;99.90
15815;DHT22;8008;50.024;8.172;2023-01-24T05:12:32;3.40;99.90
15815;DHT22;8008;50.024;8.172;2023-01-24T05:15:07;3.50;99.90
15815;DHT22;8008;50.024;8.172;2023-01-24T05:17:37;3.50;99.90
15815;DHT22;8008;50.024;8.172;2023-01-24T05:20:06;3.50;99.90
15815;DHT22;8008;50.024;8.172;2023-01-24T05:22:34;3.40;99.90
15815;DHT22;8008;50.024;8.172;2023-01-24T05:25:03;3.40;99.90
15815;DHT22;8008;50.024;8.172;2023-01-24T05:27:32;3.50;99.90
15815;DHT22;8008;50.024;8.172;2023-01-24T05:30:03;3.50;99.90
15815;DHT22;8008;50.024;8.172;2023-01-24T05:32:32;3.50;99.90
15815;DHT22;8008;50.024;8.172;2023-01-24T05:35:02;3.60;99.90
15815;DHT22;8008;50.024;8.172;2023-01-24T05:37:30;3.50;99.90
15815;DHT22;8008;50.024;8.172;2023-01-24T05:39:58;3.60;99.90
15815;DHT22;8008;50.024;8.172;2023-01-24T05:42:26;3.60;99.90
15815;DHT22;8008;50.024;8.172;2023-01-24T05:44:54;3.60;99.90
15815;DHT22;8008;50.024;8.172;2023-01-24T05:47:23;3.60;99.90
15815;DHT22;8008;50.024;8.172;2023-01-24T05:49:51;3.60;99.90
15815;DHT22;8008;50.024;8.172;2023-01-24T05:52:21;3.60;99.90
15815;DHT22;8008;50.024;8.172;2023-01-24T05:54:51;3.60;99.90
15815;DHT22;8008;50.024;8.172;2023-01-24T05:57:24;3.70;99.90
15815;DHT22;8008;50.024;8.172;2023-01-24T06:00:19;3.70;99.90
15815;DHT22;8008;50.024;8.172;2023-01-24T06:03:10;3.70;99.90
15815;DHT22;8008;50.024;8.172;2023-01-24T06:05:39;3.80;99.90
15815;DHT22;8008;50.024;8.172;2023-01-24T06:08:08;3.80;99.90
15815;DHT22;8008;50.024;8.172;2023-01-24T06:10:36;3.80;99.90
15815;DHT22;8008;50.024;8.172;2023-01-24T06:13:08;3.90;99.90
15815;DHT22;8008;50.024;8.172;2023-01-24T06:15:37;3.80;99.90
15815;DHT22;8008;50.024;8.172;2023-01-24T06:18:13;3.80;99.90
15815;DHT22;8008;50.024;8.172;2023-01-24T06:20:44;3.80;99.90
15815;DHT22;8008;50.024;8.172;2023-01-24T06:23:22;3.80;99.90
15815;DHT22;8008;50.024;8.172;2023-01-24T06:25:55;3.90;99.90
15815;DHT22;8008;50.024;8.172;2023-01-24T06:28:23;3.80;99.90
15815;DHT22;8008;50.024;8.172;2023-01-24T06:30:59;3.90;99.90
15815;DHT22;8008;50.024;8.172;2023-01-24T06:33:37;3.90;99.90
15815;DHT22;8008;50.024;8.172;2023-01-24T06:36:17;3.90;99.90
15815;DHT22;8008;50.024;8.172;2023-01-24T06:38:51;3.90;99.90
15815;DHT22;8008;50.024;8.172;2023-01-24T06:41:20;3.90;99.90
15815;DHT22;8008;50.024;8.172;2023-01-24T06:43:48;3.90;99.90
15815;DHT22;8008;50.024;8.172;2023-01-24T06:46:17;3.90;99.90
15815;DHT22;8008;50.024;8.172;2023-01-24T06:48:45;3.90;99.90
15815;DHT22;8008;50.024;8.172;2023-01-24T06:51:14;3.90;99.90
15815;DHT22;8008;50.024;8.172;2023-01-24T06:53:42;3.90;99.90
15815;DHT22;8008;50.024;8.172;2023-01-24T06:56:12;3.90;99.90
15815;DHT22;8008;50.024;8.172;2023-01-24T06:58:40;3.80;99.90
15815;DHT22;8008;50.024;8.172;2023-01-24T07:01:08;3.80;99.90
15815;DHT22;8008;50.024;8.172;2023-01-24T07:03:36;3.80;99.90
15815;DHT22;8008;50.024;8.172;2023-01-24T07:06:04;3.80;99.90
15815;DHT22;8008;50.024;8.172;2023-01-24T07:08:32;3.80;99.90
15815;DHT22;8008;50.024;8.172;2023-01-24T07:11:00;3.80;99.90
15815;DHT22;8008;50.024;8.172;2023-01-24T07:13:30;3.80;99.90
15815;DHT22;8008;50.024;8.172;2023-01-24T07:16:00;3.90;99.90
15815;DHT22;8008;50.024;8.172;2023-01-24T07:18:29;3.90;99.90
15815;DHT22;8008;50.024;8.172;2023-01-24T07:20:57;3.90;99.90
15815;DHT22;8008;50.024;8.172;2023-01-24T07:23:27;4.00;99.90
15815;DHT22;8008;50.024;8.172;2023-01-24T07:25:57;4.00;99.90
15815;DHT22;8008;50.024;8.172;2023-01-24T07:28:25;3.90;99.90
15815;DHT22;8008;50.024;8.172;2023-01-24T07:30:55;4.00;99.90
15815;DHT22;8008;50.024;8.172;2023-01-24T07:33:24;4.00;99.90
15815;DHT22;8008;50.024;8.172;2023-01-24T07:35:52;4.00;99.90
15815;DHT22;8008;50.024;8.172;2023-01-24T07:38:20;4.00;99.90
15815;DHT22;8008;50.024;8.172;2023-01-24T07:40:48;4.10;99.90
15815;DHT22;8008;50.024;8.172;2023-01-24T07:43:16;4.10;99.90
15815;DHT22;8008;50.024;8.172;2023-01-24T07:45:47;4.10;99.90
15815;DHT22;8008;50.024;8.172;2023-01-24T07:48:20;4.10;99.90
15815;DHT22;8008;50.024;8.172;2023-01-24T07:50:48;4.10;99.90
15815;DHT22;8008;50.024;8.172;2023-01-24T07:53:16;4.20;99.90
15815;DHT22;8008;50.024;8.172;2023-01-24T07:55:44;4.20;99.90
15815;DHT22;8008;50.024;8.172;2023-01-24T07:58:27;4.20;99.90
15815;DHT22;8008;50.024;8.172;2023-01-24T08:00:55;4.20;99.90
15815;DHT22;8008;50.024;8.172;2023-01-24T08:03:25;4.20;99.90
15815;DHT22;8008;50.024;8.172;2023-01-24T08:05:53;4.10;99.90
15815;DHT22;8008;50.024;8.172;2023-01-24T08:08:21;4.10;99.90
15815;DHT22;8008;50.024;8.172;2023-01-24T08:10:49;4.20;99.90
15815;DHT22;8008;50.024;8.172;2023-01-24T08:13:17;4.10;99.90
15815;DHT22;8008;50.024;8.172;2023-01-24T08:15:46;4.10;99.90
15815;DHT22;8008;50.024;8.172;2023-01-24T08:18:14;4.20;99.90
15815;DHT22;8008;50.024;8.172;2023-01-24T08:20:44;4.20;99.90
15815;DHT22;8008;50.024;8.172;2023-01-24T08:23:12;4.20;99.90
15815;DHT22;8008;50.024;8.172;2023-01-24T08:25:41;4.20;99.90
15815;DHT22;8008;50.024;8.172;2023-01-24T08:28:09;4.20;99.90
15815;DHT22;8008;50.024;8.172;2023-01-24T08:30:38;4.20;99.90
15815;DHT22;8008;50.024;8.172;2023-01-24T08:33:08;4.30;99.90
15815;DHT22;8008;50.024;8.172;2023-01-24T08:35:37;4.30;99.90
15815;DHT22;8008;50.024;8.172;2023-01-24T08:38:07;4.30;99.90
15815;DHT22;8008;50.024;8.172;2023-01-24T08:40:35;4.30;99.90
15815;DHT22;8008;50.024;8.172;2023-01-24T08:43:14;4.30;99.90
15815;DHT22;8008;50.024;8.172;2023-01-24T08:45:42;4.40;99.90
15815;DHT22;8008;50.024;8.172;2023-01-24T08:48:11;4.30;99.90
15815;DHT22;8008;50.024;8.172;2023-01-24T08:50:39;4.40;99.90
15815;DHT22;8008;50.024;8.172;2023-01-24T08:53:12;4.30;99.90
15815;DHT22;8008;50.024;8.172;2023-01-24T08:55:41;4.30;99.90
15815;DHT22;8008;50.024;8.172;2023-01-24T08:58:09;4.20;99.90
15815;DHT22;8008;50.024;8.172;2023-01-24T09:00:37;4.30;99.90
15815;DHT22;8008;50.024;8.172;2023-01-24T09:03:05;4.30;99.90
15815;DHT22;8008;50.024;8.172;2023-01-24T09:05:34;4.30;99.90
15815;DHT22;8008;50.024;8.172;2023-01-24T09:08:04;4.40;99.90
15815;DHT22;8008;50.024;8.172;2023-01-24T09:10:34;4.40;99.90
15815;DHT22;8008;50.024;8.172;2023-01-24T09:13:04;4.40;99.90
15815;DHT22;8008;50.024;8.172;2023-01-24T09:15:32;4.40;99.90
15815;DHT22;8008;50.024;8.172;2023-01-24T09:18:01;4.40;99.90
15815;DHT22;8008;50.024;8.172;2023-01-24T09:20:30;4.50;99.90
15815;DHT22;8008;50.024;8.172;2023-01-24T09:22:58;4.40;99.90
15815;DHT22;8008;50.024;8.172;2023-01-24T09:25:26;4.40;99.90
15815;DHT22;8008;50.024;8.172;2023-01-24T09:27:58;4.40;99.90
15815;DHT22;8008;50.024;8.172;2023-01-24T09:30:26;4.40;99.90
15815;DHT22;8008;50.024;8.172;2023-01-24T09:32:55;4.40;99.90
15815;DHT22;8008;50.024;8.172;2023-01-24T09:35:23;4.40;99.90
15815;DHT22;8008;50.024;8.172;2023-01-24T09:37:51;4.40;99.90
15815;DHT22;8008;50.024;8.172;2023-01-24T09:40:21;4.40;99.90
15815;DHT22;8008;50.024;8.172;2023-01-24T09:42:59;4.50;99.90
15815;DHT22;8008;50.024;8.172;2023-01-24T09:45:32;4.50;99.90
15815;DHT22;8008;50.024;8.172;2023-01-24T09:48:05;4.50;99.90
15815;DHT22;8008;50.024;8.172;2023-01-24T09:50:38;4.60;99.90
15815;DHT22;8008;50.024;8.172;2023-01-24T09:53:14;4.50;99.90
15815;DHT22;8008;50.024;8.172;2023-01-24T09:55:45;4.60;99.90
15815;DHT22;8008;50.024;8.172;2023-01-24T09:58:26;4.60;99.90
15815;DHT22;8008;50.024;8.172;2023-01-24T10:01:03;4.60;99.90
15815;DHT22;8008;50.024;8.172;2023-01-24T10:03:34;4.60;99.90
15815;DHT22;8008;50.024;8.172;2023-01-24T10:06:08;4.70;99.90
15815;DHT22;8008;50.024;8.172;2023-01-24T10:08:45;4.70;99.90
15815;DHT22;8008;50.024;8.172;2023-01-24T10:11:22;4.70;99.90
15815;DHT22;8008;50.024;8.172;2023-01-24T10:20:01;4.70;99.90
15815;DHT22;8008;50.024;8.172;2023-01-24T10:22:45;4.60;99.90
15815;DHT22;8008;50.024;8.172;2023-01-24T10:25:19;4.70;99.90
15815;DHT22;8008;50.024;8.172;2023-01-24T10:27:52;4.70;99.90
15815;DHT22;8008;50.024;8.172;2023-01-24T10:30:26;4.70;99.90
15815;DHT22;8008;50.024;8.172;2023-01-24T10:33:01;4.70;99.90
15815;DHT22;8008;50.024;8.172;2023-01-24T10:35:37;4.70;99.90
15815;DHT22;8008;50.024;8.172;2023-01-24T10:38:11;4.70;99.90
15815;DHT22;8008;50.024;8.172;2023-01-24T10:40:49;4.70;99.90
15815;DHT22;8008;50.024;8.172;2023-01-24T10:43:18;4.70;99.90
15815;DHT22;8008;50.024;8.172;2023-01-24T10:45:56;4.70;99.90
15815;DHT22;8008;50.024;8.172;2023-01-24T10:48:37;4.60;99.90
15815;DHT22;8008;50.024;8.172;2023-01-24T10:51:13;4.70;99.90
15815;DHT22;8008;50.024;8.172;2023-01-24T10:53:42;4.70;99.90
15815;DHT22;8008;50.024;8.172;2023-01-24T10:56:12;4.70;99.90
15815;DHT22;8008;50.024;8.172;2023-01-24T10:58:43;4.70;99.90
15815;DHT22;8008;50.024;8.172;2023-01-24T11:01:17;4.60;99.90
15815;DHT22;8008;50.024;8.172;2023-01-24T11:03:48;4.70;99.90
15815;DHT22;8008;50.024;8.172;2023-01-24T11:06:25;4.70;99.90
15815;DHT22;8008;50.024;8.172;2023-01-24T11:09:03;4.70;99.90
15815;DHT22;8008;50.024;8.172;2023-01-24T11:11:32;4.60;99.90
15815;DHT22;8008;50.024;8.172;2023-01-24T11:14:01;4.60;99.90
15815;DHT22;8008;50.024;8.172;2023-01-24T11:16:34;4.60;99.90
15815;DHT22;8008;50.024;8.172;2023-01-24T11:19:21;4.60;99.90
15815;DHT22;8008;50.024;8.172;2023-01-24T11:21:51;4.60;99.90
15815;DHT22;8008;50.024;8.172;2023-01-24T11:24:20;4.60;99.90
15815;DHT22;8008;50.024;8.172;2023-01-24T11:26:57;4.60;99.90
15815;DHT22;8008;50.024;8.172;2023-01-24T11:29:29;4.60;99.90
15815;DHT22;8008;50.024;8.172;2023-01-24T11:32:12;4.50;99.90
15815;DHT22;8008;50.024;8.172;2023-01-24T11:34:54;4.50;99.90
15815;DHT22;8008;50.024;8.172;2023-01-24T11:37:51;4.50;99.90
15815;DHT22;8008;50.024;8.172;2023-01-24T11:40:33;4.50;99.90
15815;DHT22;8008;50.024;8.172;2023-01-24T11:43:23;4.60;99.90
15815;DHT22;8008;50.024;8.172;2023-01-24T11:46:12;4.60;99.90
15815;DHT22;8008;50.024;8.172;2023-01-24T11:48:50;4.60;99.90
15815;DHT22;8008;50.024;8.172;2023-01-24T11:51:25;4.60;99.90
15815;DHT22;8008;50.024;8.172;2023-01-24T11:54:07;4.60;99.90
15815;DHT22;8008;50.024;8.172;2023-01-24T11:56:42;4.60;99.90
15815;DHT22;8008;50.024;8.172;2023-01-24T11:59:23;4.60;99.90
15815;DHT22;8008;50.024;8.172;2023-01-24T12:02:00;4.60;99.90
15815;DHT22;8008;50.024;8.172;2023-01-24T12:07:31;4.70;99.90
15815;DHT22;8008;50.024;8.172;2023-01-24T12:10:14;4.70;99.90
15815;DHT22;8008;50.024;8.172;2023-01-24T12:12:49;4.70;99.90
15815;DHT22;8008;50.024;8.172;2023-01-24T12:15:32;4.70;99.90
15815;DHT22;8008;50.024;8.172;2023-01-24T12:18:19;4.70;99.90
15815;DHT22;8008;50.024;8.172;2023-01-24T12:21:05;4.70;99.90
15815;DHT22;8008;50.024;8.172;2023-01-24T12:23:40;4.70;99.90
15815;DHT22;8008;50.024;8.172;2023-01-24T12:26:13;4.80;99.90
15815;DHT22;8008;50.024;8.172;2023-01-24T12:28:47;4.80;99.90
15815;DHT22;8008;50.024;8.172;2023-01-24T12:31:26;4.80;99.90
15815;DHT22;8008;50.024;8.172;2023-01-24T12:33:58;4.80;99.90
15815;DHT22;8008;50.024;8.172;2023-01-24T12:36:35;4.80;99.90
15815;DHT22;8008;50.024;8.172;2023-01-24T12:39:11;4.70;99.90
15815;DHT22;8008;50.024;8.172;2023-01-24T12:41:44;4.70;99.90
15815;DHT22;8008;50.024;8.172;2023-01-24T12:44:24;4.70;99.90
15815;DHT22;8008;50.024;8.172;2023-01-24T12:47:05;4.80;99.90
15815;DHT22;8008;50.024;8.172;2023-01-24T12:49:41;4.80;99.90
15815;DHT22;8008;50.024;8.172;2023-01-24T12:52:22;4.80;99.90
15815;DHT22;8008;50.024;8.172;2023-01-24T12:54:54;4.80;99.90
15815;DHT22;8008;50.024;8.172;2023-01-24T12:57:26;4.80;99.90
15815;DHT22;8008;50.024;8.172;2023-01-24T12:59:55;4.80;99.90
15815;DHT22;8008;50.024;8.172;2023-01-24T13:02:49;4.80;99.90
15815;DHT22;8008;50.024;8.172;2023-01-24T13:05:38;4.80;99.90
15815;DHT22;8008;50.024;8.172;2023-01-24T13:08:22;4.80;99.90
15815;DHT22;8008;50.024;8.172;2023-01-24T13:11:00;4.90;99.90
15815;DHT22;8008;50.024;8.172;2023-01-24T13:13:38;4.90;99.90
15815;DHT22;8008;50.024;8.172;2023-01-24T13:16:23;4.90;99.90
15815;DHT22;8008;50.024;8.172;2023-01-24T13:18:57;4.80;99.90
15815;DHT22;8008;50.024;8.172;2023-01-24T13:21:36;4.80;99.90
15815;DHT22;8008;50.024;8.172;2023-01-24T13:24:30;4.80;99.90
15815;DHT22;8008;50.024;8.172;2023-01-24T13:27:22;4.80;99.90
15815;DHT22;8008;50.024;8.172;2023-01-24T13:30:05;4.80;99.90
15815;DHT22;8008;50.024;8.172;2023-01-24T13:32:38;4.90;99.90
15815;DHT22;8008;50.024;8.172;2023-01-24T13:35:15;4.90;99.90
15815;DHT22;8008;50.024;8.172;2023-01-24T13:37:50;4.80;99.90
15815;DHT22;8008;50.024;8.172;2023-01-24T13:40:27;4.90;99.90
15815;DHT22;8008;50.024;8.172;2023-01-24T13:42:57;4.80;99.90
15815;DHT22;8008;50.024;8.172;2023-01-24T13:45:48;4.80;99.90
15815;DHT22;8008;50.024;8.172;2023-01-24T13:48:45;4.90;99.90
15815;DHT22;8008;50.024;8.172;2023-01-24T13:51:34;4.90;99.90
15815;DHT22;8008;50.024;8.172;2023-01-24T13:54:18;4.90;99.90
15815;DHT22;8008;50.024;8.172;2023-01-24T13:57:10;4.90;99.90
15815;DHT22;8008;50.024;8.172;2023-01-24T13:59:40;4.90;99.90
15815;DHT22;8008;50.024;8.172;2023-01-24T14:02:26;4.90;99.90
15815;DHT22;8008;50.024;8.172;2023-01-24T14:04:55;4.90;99.90
15815;DHT22;8008;50.024;8.172;2023-01-24T14:07:28;4.90;99.90
15815;DHT22;8008;50.024;8.172;2023-01-24T14:09:58;4.80;99.90
15815;DHT22;8008;50.024;8.172;2023-01-24T14:12:33;4.90;99.90
15815;DHT22;8008;50.024;8.172;2023-01-24T14:15:22;4.90;99.90
15815;DHT22;8008;50.024;8.172;2023-01-24T14:17:51;4.90;99.90
15815;DHT22;8008;50.024;8.172;2023-01-24T14:20:41;5.00;99.90
15815;DHT22;8008;50.024;8.172;2023-01-24T14:23:14;5.00;99.90
15815;DHT22;8008;50.024;8.172;2023-01-24T14:25:49;4.90;99.90
15815;DHT22;8008;50.024;8.172;2023-01-24T14:28:28;4.90;99.90
15815;DHT22;8008;50.024;8.172;2023-01-24T14:31:04;4.90;99.90
15815;DHT22;8008;50.024;8.172;2023-01-24T14:33:42;4.90;99.90
15815;DHT22;8008;50.024;8.172;2023-01-24T14:36:26;4.90;99.90
15815;DHT22;8008;50.024;8.172;2023-01-24T14:39:11;5.00;99.90
15815;DHT22;8008;50.024;8.172;2023-01-24T14:41:39;5.00;99.90
15815;DHT22;8008;50.024;8.172;2023-01-24T14:44:18;5.00;99.90
15815;DHT22;8008;50.024;8.172;2023-01-24T14:46:52;4.90;99.90
15815;DHT22;8008;50.024;8.172;2023-01-24T14:49:31;5.00;99.90
15815;DHT22;8008;50.024;8.172;2023-01-24T14:52:00;4.90;99.90
15815;DHT22;8008;50.024;8.172;2023-01-24T14:54:45;4.90;99.90
15815;DHT22;8008;50.024;8.172;2023-01-24T14:57:22;4.80;99.90
15815;DHT22;8008;50.024;8.172;2023-01-24T15:00:07;4.80;99.90
15815;DHT22;8008;50.024;8.172;2023-01-24T15:02:51;4.80;99.90
15815;DHT22;8008;50.024;8.172;2023-01-24T15:05:25;4.80;99.90
15815;DHT22;8008;50.024;8.172;2023-01-24T15:07:53;4.80;99.90
15815;DHT22;8008;50.024;8.172;2023-01-24T15:10:22;4.80;99.90
15815;DHT22;8008;50.024;8.172;2023-01-24T15:12:51;4.90;99.90
15815;DHT22;8008;50.024;8.172;2023-01-24T15:15:22;4.80;99.90
15815;DHT22;8008;50.024;8.172;2023-01-24T15:17:56;4.80;99.90
15815;DHT22;8008;50.024;8.172;2023-01-24T15:20:26;4.80;99.90
15815;DHT22;8008;50.024;8.172;2023-01-24T15:22:57;4.80;99.90
15815;DHT22;8008;50.024;8.172;2023-01-24T15:25:28;4.80;99.90
15815;DHT22;8008;50.024;8.172;2023-01-24T15:27:57;4.80;99.90
15815;DHT22;8008;50.024;8.172;2023-01-24T15:30:27;4.80;99.90
15815;DHT22;8008;50.024;8.172;2023-01-24T15:33:02;4.80;99.90
15815;DHT22;8008;50.024;8.172;2023-01-24T15:35:32;4.80;99.90
15815;DHT22;8008;50.024;8.172;2023-01-24T15:38:16;4.80;99.90
15815;DHT22;8008;50.024;8.172;2023-01-24T15:40:54;4.80;99.90
15815;DHT22;8008;50.024;8.172;2023-01-24T15:43:27;4.80;99.90
15815;DHT22;8008;50.024;8.172;2023-01-24T15:46:24;4.80;99.90
15815;DHT22;8008;50.024;8.172;2023-01-24T15:49:20;4.70;99.90
15815;DHT22;8008;50.024;8.172;2023-01-24T15:52:16;4.70;99.90
15815;DHT22;8008;50.024;8.172;2023-01-24T15:54:47;4.70;99.90
15815;DHT22;8008;50.024;8.172;2023-01-24T15:57:22;4.80;99.90
15815;DHT22;8008;50.024;8.172;2023-01-24T15:59:55;4.70;99.90
15815;DHT22;8008;50.024;8.172;2023-01-24T16:02:27;4.80;99.90
15815;DHT22;8008;50.024;8.172;2023-01-24T16:04:55;4.70;99.90
15815;DHT22;8008;50.024;8.172;2023-01-24T16:07:24;4.70;99.90
15815;DHT22;8008;50.024;8.172;2023-01-24T16:09:52;4.70;99.90
15815;DHT22;8008;50.024;8.172;2023-01-24T16:12:24;4.70;99.90
15815;DHT22;8008;50.024;8.172;2023-01-24T16:14:53;4.70;99.90
15815;DHT22;8008;50.024;8.172;2023-01-24T16:17:36;4.70;99.90
15815;DHT22;8008;50.024;8.172;2023-01-24T16:20:16;4.70;99.90
15815;DHT22;8008;50.024;8.172;2023-01-24T16:22:45;4.80;99.90
15815;DHT22;8008;50.024;8.172;2023-01-24T16:25:14;4.80;99.90
15815;DHT22;8008;50.024;8.172;2023-01-24T16:27:42;4.70;99.90
15815;DHT22;8008;50.024;8.172;2023-01-24T16:30:15;4.70;99.90
15815;DHT22;8008;50.024;8.172;2023-01-24T16:32:45;4.70;99.90
15815;DHT22;8008;50.024;8.172;2023-01-24T16:35:13;4.70;99.90
15815;DHT22;8008;50.024;8.172;2023-01-24T16:37:41;4.70;99.90
15815;DHT22;8008;50.024;8.172;2023-01-24T16:40:10;4.60;99.90
15815;DHT22;8008;50.024;8.172;2023-01-24T16:42:39;4.60;99.90
15815;DHT22;8008;50.024;8.172;2023-01-24T16:45:11;4.60;99.90
15815;DHT22;8008;50.024;8.172;2023-01-24T16:47:39;4.50;99.90
15815;DHT22;8008;50.024;8.172;2023-01-24T16:50:11;4.60;99.90
15815;DHT22;8008;50.024;8.172;2023-01-24T16:52:39;4.50;99.90
15815;DHT22;8008;50.024;8.172;2023-01-24T16:55:08;4.60;99.90
15815;DHT22;8008;50.024;8.172;2023-01-24T16:57:36;4.60;99.90
15815;DHT22;8008;50.024;8.172;2023-01-24T17:00:06;4.60;99.90
15815;DHT22;8008;50.024;8.172;2023-01-24T17:02:38;4.70;99.90
15815;DHT22;8008;50.024;8.172;2023-01-24T17:05:06;4.60;99.90
15815;DHT22;8008;50.024;8.172;2023-01-24T17:07:35;4.60;99.90
15815;DHT22;8008;50.024;8.172;2023-01-24T17:10:04;4.60;99.90
15815;DHT22;8008;50.024;8.172;2023-01-24T17:12:33;4.50;99.90
15815;DHT22;8008;50.024;8.172;2023-01-24T17:15:00;4.50;99.90
15815;DHT22;8008;50.024;8.172;2023-01-24T17:17:28;4.50;99.90
15815;DHT22;8008;50.024;8.172;2023-01-24T17:19:56;4.50;99.90
15815;DHT22;8008;50.024;8.172;2023-01-24T17:22:24;4.50;99.90
15815;DHT22;8008;50.024;8.172;2023-01-24T17:24:53;4.50;99.90
15815;DHT22;8008;50.024;8.172;2023-01-24T17:27:21;4.40;99.90
15815;DHT22;8008;50.024;8.172;2023-01-24T17:29:49;4.30;99.90
15815;DHT22;8008;50.024;8.172;2023-01-24T17:32:18;4.30;99.90
15815;DHT22;8008;50.024;8.172;2023-01-24T17:34:45;4.30;99.90
15815;DHT22;8008;50.024;8.172;2023-01-24T17:37:13;4.30;99.90
15815;DHT22;8008;50.024;8.172;2023-01-24T17:39:41;4.30;99.90
15815;DHT22;8008;50.024;8.172;2023-01-24T17:42:10;4.20;99.90
15815;DHT22;8008;50.024;8.172;2023-01-24T17:44:38;4.30;99.90
15815;DHT22;8008;50.024;8.172;2023-01-24T17:47:06;4.40;99.90
15815;DHT22;8008;50.024;8.172;2023-01-24T17:49:34;4.40;99.90
15815;DHT22;8008;50.024;8.172;2023-01-24T17:52:02;4.40;99.90
15815;DHT22;8008;50.024;8.172;2023-01-24T17:54:30;4.40;99.90
15815;DHT22;8008;50.024;8.172;2023-01-24T17:56:58;4.40;99.90
15815;DHT22;8008;50.024;8.172;2023-01-24T17:59:27;4.40;99.90
15815;DHT22;8008;50.024;8.172;2023-01-24T18:01:55;4.30;99.90
15815;DHT22;8008;50.024;8.172;2023-01-24T18:04:23;4.30;99.90
15815;DHT22;8008;50.024;8.172;2023-01-24T18:06:51;4.40;99.90
15815;DHT22;8008;50.024;8.172;2023-01-24T18:09:19;4.40;99.90
15815;DHT22;8008;50.024;8.172;2023-01-24T18:11:48;4.40;99.90
15815;DHT22;8008;50.024;8.172;2023-01-24T18:14:16;4.40;99.90
15815;DHT22;8008;50.024;8.172;2023-01-24T18:16:45;4.40;99.90
15815;DHT22;8008;50.024;8.172;2023-01-24T18:19:13;4.40;99.90
15815;DHT22;8008;50.024;8.172;2023-01-24T18:21:41;4.40;99.90
15815;DHT22;8008;50.024;8.172;2023-01-24T18:24:09;4.30;99.90
15815;DHT22;8008;50.024;8.172;2023-01-24T18:26:37;4.40;99.90
15815;DHT22;8008;50.024;8.172;2023-01-24T18:29:05;4.30;99.90
15815;DHT22;8008;50.024;8.172;2023-01-24T18:31:33;4.40;99.90
15815;DHT22;8008;50.024;8.172;2023-01-24T18:34:03;4.40;99.90
15815;DHT22;8008;50.024;8.172;2023-01-24T18:36:30;4.40;99.90
15815;DHT22;8008;50.024;8.172;2023-01-24T18:38:58;4.40;99.90
15815;DHT22;8008;50.024;8.172;2023-01-24T18:41:26;4.40;99.90
15815;DHT22;8008;50.024;8.172;2023-01-24T18:43:56;4.40;99.90
15815;DHT22;8008;50.024;8.172;2023-01-24T18:46:24;4.50;99.90
15815;DHT22;8008;50.024;8.172;2023-01-24T18:48:53;4.40;99.90
15815;DHT22;8008;50.024;8.172;2023-01-24T18:51:22;4.40;99.90
15815;DHT22;8008;50.024;8.172;2023-01-24T18:53:51;4.40;99.90
15815;DHT22;8008;50.024;8.172;2023-01-24T18:56:19;4.40;99.90
15815;DHT22;8008;50.024;8.172;2023-01-24T18:58:48;4.40;99.90
15815;DHT22;8008;50.024;8.172;2023-01-24T19:01:17;4.40;99.90
15815;DHT22;8008;50.024;8.172;2023-01-24T19:03:46;4.40;99.90
15815;DHT22;8008;50.024;8.172;2023-01-24T19:06:14;4.30;99.90
15815;DHT22;8008;50.024;8.172;2023-01-24T19:08:44;4.40;99.90
15815;DHT22;8008;50.024;8.172;2023-01-24T19:11:29;4.30;99.90
15815;DHT22;8008;50.024;8.172;2023-01-24T19:13:57;4.20;99.90
15815;DHT22;8008;50.024;8.172;2023-01-24T19:16:26;4.20;99.90
15815;DHT22;8008;50.024;8.172;2023-01-24T19:18:54;4.30;99.90
15815;DHT22;8008;50.024;8.172;2023-01-24T19:21:22;4.20;99.90
15815;DHT22;8008;50.024;8.172;2023-01-24T19:23:54;4.30;99.90
15815;DHT22;8008;50.024;8.172;2023-01-24T19:26:23;4.30;99.90
15815;DHT22;8008;50.024;8.172;2023-01-24T19:28:52;4.30;99.90
15815;DHT22;8008;50.024;8.172;2023-01-24T19:31:21;4.30;99.90
15815;DHT22;8008;50.024;8.172;2023-01-24T19:33:50;4.40;99.90
15815;DHT22;8008;50.024;8.172;2023-01-24T19:36:18;4.40;99.90
15815;DHT22;8008;50.024;8.172;2023-01-24T19:38:50;4.40;99.90
15815;DHT22;8008;50.024;8.172;2023-01-24T19:41:20;4.40;99.90
15815;DHT22;8008;50.024;8.172;2023-01-24T19:43:48;4.30;99.90
15815;DHT22;8008;50.024;8.172;2023-01-24T19:46:36;4.30;99.90
15815;DHT22;8008;50.024;8.172;2023-01-24T19:49:04;4.30;99.90
15815;DHT22;8008;50.024;8.172;2023-01-24T19:51:32;4.20;99.90
15815;DHT22;8008;50.024;8.172;2023-01-24T19:54:00;4.30;99.90
15815;DHT22;8008;50.024;8.172;2023-01-24T19:56:29;4.20;99.90
15815;DHT22;8008;50.024;8.172;2023-01-24T19:59:01;4.20;99.90
15815;DHT22;8008;50.024;8.172;2023-01-24T20:01:29;4.30;99.90
15815;DHT22;8008;50.024;8.172;2023-01-24T20:03:57;4.30;99.90
15815;DHT22;8008;50.024;8.172;2023-01-24T20:06:45;4.30;99.90
15815;DHT22;8008;50.024;8.172;2023-01-24T20:09:13;4.30;99.90
15815;DHT22;8008;50.024;8.172;2023-01-24T20:11:42;4.30;99.90
15815;DHT22;8008;50.024;8.172;2023-01-24T20:14:10;4.40;99.90
15815;DHT22;8008;50.024;8.172;2023-01-24T20:16:38;4.40;99.90
15815;DHT22;8008;50.024;8.172;2023-01-24T20:19:06;4.40;99.90
15815;DHT22;8008;50.024;8.172;2023-01-24T20:21:52;4.40;99.90
15815;DHT22;8008;50.024;8.172;2023-01-24T20:24:20;4.30;99.90
15815;DHT22;8008;50.024;8.172;2023-01-24T20:26:50;4.40;99.90
15815;DHT22;8008;50.024;8.172;2023-01-24T20:29:18;4.40;99.90
15815;DHT22;8008;50.024;8.172;2023-01-24T20:31:46;4.40;99.90
15815;DHT22;8008;50.024;8.172;2023-01-24T20:34:14;4.40;99.90
15815;DHT22;8008;50.024;8.172;2023-01-24T20:36:44;4.30;99.90
15815;DHT22;8008;50.024;8.172;2023-01-24T20:39:13;4.40;99.90
15815;DHT22;8008;50.024;8.172;2023-01-24T20:41:41;4.40;99.90
15815;DHT22;8008;50.024;8.172;2023-01-24T20:44:13;4.40;99.90
15815;DHT22;8008;50.024;8.172;2023-01-24T20:46:52;4.40;99.90